Time;durP1;ratioP1;P1;durP2;ratioP2;P2;SDS_P1;SDS_P2;PMS_P1;PMS_P2;Temp;Humidity;BMP_temperature;BMP_pressure;BME280_temperature;BME280_humidity;BME280_pressure;Samples;Min_cycle;Max_cycle;Signal;HPM_P1;HPM_P2
2021/01/31 00:02:17;;;;;;;6.60;4.38;;;-1.80;65.90;;;;;;5020771;28;20667;-80
2021/01/31 00:04:49;;;;;;;5.65;4.07;;;-1.90;65.90;;;;;;5020444;28;20073;-80
2021/01/31 00:07:16;;;;;;;5.53;3.50;;;-1.90;65.90;;;;;;5023372;28;20092;-80
2021/01/31 00:09:43;;;;;;;6.13;4.10;;;-1.90;66.00;;;;;;5015627;28;20034;-80
2021/01/31 00:12:12;;;;;;;6.10;4.10;;;-2.00;65.90;;;;;;5021112;28;20041;-79
2021/01/31 00:14:38;;;;;;;6.65;4.40;;;-2.00;65.90;;;;;;5019493;28;20109;-80
2021/01/31 00:17:04;;;;;;;7.13;4.78;;;-2.10;65.90;;;;;;5019364;28;20037;-80
2021/01/31 00:19:30;;;;;;;7.13;4.50;;;-2.10;65.80;;;;;;5020223;28;20053;-80
2021/01/31 00:21:57;;;;;;;7.28;4.32;;;-2.10;65.90;;;;;;5021736;28;20045;-80
2021/01/31 00:24:23;;;;;;;5.75;3.65;;;-2.10;65.90;;;;;;5013083;28;20038;-80
2021/01/31 00:26:48;;;;;;;9.45;5.03;;;-2.20;66.00;;;;;;5022075;28;20106;-80
2021/01/31 00:29:14;;;;;;;6.95;4.07;;;-2.10;66.20;;;;;;5022433;28;20053;-80
2021/01/31 00:31:42;;;;;;;5.53;3.55;;;-2.20;66.20;;;;;;5020073;28;20049;-80
2021/01/31 00:34:08;;;;;;;6.40;4.10;;;-2.20;66.30;;;;;;5021421;28;20037;-80
2021/01/31 00:36:33;;;;;;;3.95;3.20;;;-2.20;66.40;;;;;;5020385;28;20427;-80
2021/01/31 00:38:59;;;;;;;5.45;3.92;;;-2.20;66.40;;;;;;5014040;28;20091;-80
2021/01/31 00:41:24;;;;;;;5.38;3.33;;;-2.20;66.30;;;;;;5019643;28;20035;-80
2021/01/31 00:43:50;;;;;;;5.07;3.30;;;-2.20;66.20;;;;;;5021230;28;20033;-80
2021/01/31 00:46:15;;;;;;;7.28;4.72;;;-2.30;66.20;;;;;;5013848;28;20125;-80
2021/01/31 00:48:41;;;;;;;5.93;4.10;;;-2.30;66.10;;;;;;5024968;28;20038;-79
2021/01/31 00:51:06;;;;;;;5.43;3.92;;;-2.30;66.10;;;;;;5023681;28;20116;-80
2021/01/31 00:53:32;;;;;;;5.43;3.58;;;-2.30;66.10;;;;;;5015172;28;20511;-80
2021/01/31 00:55:57;;;;;;;5.00;3.30;;;-2.30;66.10;;;;;;5022376;28;20025;-80
2021/01/31 00:58:22;;;;;;;4.72;3.47;;;-2.30;66.20;;;;;;5020079;28;20087;-80
2021/01/31 01:00:48;;;;;;;5.28;3.63;;;-2.40;66.20;;;;;;5020054;28;20873;-80
2021/01/31 01:03:13;;;;;;;6.03;3.72;;;-2.40;66.20;;;;;;5024847;28;20049;-79
2021/01/31 01:05:39;;;;;;;4.88;3.17;;;-2.40;66.10;;;;;;5020645;28;20037;-80
2021/01/31 01:08:05;;;;;;;5.53;3.35;;;-2.40;66.10;;;;;;5020251;28;20514;-80
2021/01/31 01:10:33;;;;;;;4.85;3.35;;;-2.40;66.10;;;;;;5017844;28;20034;-80
2021/01/31 01:13:00;;;;;;;5.50;3.20;;;-2.50;66.00;;;;;;5021507;28;20398;-80
2021/01/31 01:15:27;;;;;;;5.88;3.85;;;-2.40;66.00;;;;;;5019648;28;20042;-79
2021/01/31 01:17:54;;;;;;;4.53;2.80;;;-2.40;65.90;;;;;;5015734;28;20038;-79
2021/01/31 01:20:20;;;;;;;5.40;3.30;;;-2.50;65.80;;;;;;5019284;28;20036;-79
2021/01/31 01:22:46;;;;;;;5.70;3.65;;;-2.50;65.70;;;;;;5020500;28;20060;-79
2021/01/31 01:25:14;;;;;;;5.78;3.65;;;-2.50;65.70;;;;;;5023227;28;20120;-79
2021/01/31 01:27:39;;;;;;;7.40;4.10;;;-2.60;65.60;;;;;;5027940;28;20034;-78
2021/01/31 01:30:12;;;;;;;6.07;4.22;;;-2.60;65.70;;;;;;5031990;28;20040;-80
2021/01/31 01:32:38;;;;;;;5.35;3.10;;;-2.60;65.70;;;;;;5023415;28;20045;-79
2021/01/31 01:35:06;;;;;;;6.07;3.50;;;-2.60;65.70;;;;;;5029061;28;20127;-79
2021/01/31 01:37:31;;;;;;;5.80;3.33;;;-2.70;65.60;;;;;;5028883;28;20092;-79
2021/01/31 01:39:57;;;;;;;3.80;2.58;;;-2.70;65.60;;;;;;5022599;28;20398;-80
2021/01/31 01:42:22;;;;;;;4.05;2.47;;;-2.70;65.50;;;;;;5023349;28;20037;-79
2021/01/31 01:44:48;;;;;;;5.03;3.20;;;-2.80;65.40;;;;;;5024334;28;20041;-80
2021/01/31 01:47:22;;;;;;;3.63;2.67;;;-2.80;65.40;;;;;;5026386;28;20026;-79
2021/01/31 01:49:53;;;;;;;3.75;2.58;;;-2.80;65.50;;;;;;5025280;28;20037;-80
2021/01/31 01:52:32;;;;;;;3.35;2.38;;;-2.90;65.50;;;;;;5023825;28;20112;-78
2021/01/31 01:55:06;;;;;;;3.83;2.47;;;-2.90;65.50;;;;;;5019882;28;22136;-79
2021/01/31 01:57:37;;;;;;;4.80;2.92;;;-2.90;65.60;;;;;;5025065;28;20084;-79
2021/01/31 02:00:05;;;;;;;4.78;2.53;;;-2.90;65.70;;;;;;5026379;28;20025;-80
2021/01/31 02:02:36;;;;;;;3.95;2.50;;;-3.00;65.70;;;;;;5023732;28;20686;-80
2021/01/31 02:05:05;;;;;;;4.70;2.83;;;-3.00;65.70;;;;;;5028317;28;20036;-79
2021/01/31 02:07:30;;;;;;;5.35;3.10;;;-3.00;65.70;;;;;;5027101;28;20523;-77
2021/01/31 02:09:56;;;;;;;4.53;2.80;;;-3.00;65.90;;;;;;5020504;28;20033;-79
2021/01/31 02:12:27;;;;;;;4.72;3.05;;;-3.10;66.00;;;;;;5024462;28;20095;-79
2021/01/31 02:14:55;;;;;;;4.07;2.72;;;-3.00;66.20;;;;;;5018005;28;20087;-79
2021/01/31 02:17:30;;;;;;;5.88;3.70;;;-3.10;66.10;;;;;;5023371;28;20091;-79
2021/01/31 02:20:34;;;;;;;5.25;3.22;;;-3.00;66.20;;;;;;5019283;28;20057;-80
2021/01/31 02:23:27;;;;;;;3.85;2.80;;;-3.00;66.00;;;;;;5014577;28;20038;-80
2021/01/31 02:26:01;;;;;;;4.68;3.10;;;-3.00;65.90;;;;;;5018206;28;20036;-79
2021/01/31 02:28:47;;;;;;;3.25;2.55;;;-3.00;65.90;;;;;;5022214;28;20029;-79
2021/01/31 02:31:27;;;;;;;4.50;3.03;;;-3.10;65.80;;;;;;5021569;28;20029;-79
2021/01/31 02:34:13;;;;;;;4.35;2.78;;;-3.10;65.80;;;;;;5024448;28;20034;-79
2021/01/31 02:36:46;;;;;;;4.40;2.80;;;-3.10;65.80;;;;;;5028232;28;20034;-78
2021/01/31 02:39:22;;;;;;;4.78;3.15;;;-3.10;65.70;;;;;;5020922;28;20040;-80
2021/01/31 02:42:04;;;;;;;4.45;3.00;;;-3.10;65.70;;;;;;5024904;28;20056;-79
2021/01/31 02:44:35;;;;;;;5.70;3.45;;;-3.20;65.60;;;;;;5005802;28;20047;-80
2021/01/31 02:47:04;;;;;;;4.78;3.35;;;-3.10;65.70;;;;;;5020984;28;20037;-80
2021/01/31 02:49:36;;;;;;;4.32;3.35;;;-3.20;65.70;;;;;;5023394;28;20071;-80
2021/01/31 02:52:23;;;;;;;5.28;3.70;;;-3.20;65.80;;;;;;5023985;28;20026;-79
2021/01/31 02:55:08;;;;;;;3.45;2.70;;;-3.20;65.80;;;;;;5016523;28;20319;-80
2021/01/31 02:57:39;;;;;;;4.50;2.42;;;-3.20;65.80;;;;;;5021918;28;20507;-79
2021/01/31 03:00:04;;;;;;;;;;;-3.20;66.00;;;;;;5024412;28;20643;-81
2021/01/31 03:02:37;;;;;;;4.22;2.67;;;-3.20;65.60;;;;;;5023340;28;19909;-81
2021/01/31 03:05:17;;;;;;;4.53;2.72;;;-3.20;65.80;;;;;;5029091;28;20047;-81
2021/01/31 03:08:04;;;;;;;3.85;2.28;;;-3.20;65.70;;;;;;5028471;28;20419;-80
2021/01/31 03:10:39;;;;;;;3.60;2.53;;;-3.20;65.70;;;;;;5029022;28;20040;-80
2021/01/31 03:13:10;;;;;;;4.15;2.50;;;-3.20;65.60;;;;;;5025851;28;20099;-80
2021/01/31 03:15:42;;;;;;;4.22;2.67;;;-3.20;65.60;;;;;;5025307;28;20056;-80
2021/01/31 03:18:22;;;;;;;6.05;4.00;;;-3.30;65.60;;;;;;5012194;28;20033;-79
2021/01/31 03:20:58;;;;;;;4.05;2.30;;;-3.20;65.70;;;;;;5026294;28;20059;-79
2021/01/31 03:23:50;;;;;;;4.47;2.60;;;-3.20;65.90;;;;;;5017906;28;20038;-79
2021/01/31 03:26:46;;;;;;;3.08;2.25;;;-3.30;65.80;;;;;;5026648;28;20077;-80
2021/01/31 03:29:12;;;;;;;3.33;2.35;;;-3.30;65.80;;;;;;5021644;28;20026;-80
2021/01/31 03:31:42;;;;;;;3.72;2.78;;;-3.20;65.70;;;;;;5020942;28;20041;-79
2021/01/31 03:34:11;;;;;;;4.13;2.90;;;-3.30;65.60;;;;;;5025529;28;20113;-80
2021/01/31 03:36:42;;;;;;;4.70;3.08;;;-3.40;65.50;;;;;;5025727;28;20037;-80
2021/01/31 03:39:09;;;;;;;5.15;3.17;;;-3.30;65.60;;;;;;5019376;28;20030;-81
2021/01/31 03:41:35;;;;;;;4.22;2.47;;;-3.40;65.60;;;;;;5017564;28;20061;-80
2021/01/31 03:44:00;;;;;;;4.53;2.38;;;-3.30;65.80;;;;;;5027137;28;20064;-79
2021/01/31 03:46:44;;;;;;;4.20;3.10;;;-3.40;65.90;;;;;;5026029;28;20032;-79
2021/01/31 03:49:18;;;;;;;4.85;3.00;;;-3.40;65.90;;;;;;5020200;28;20083;-80
2021/01/31 03:51:45;;;;;;;4.57;2.65;;;-3.40;66.00;;;;;;5025891;28;20033;-80
2021/01/31 03:54:11;;;;;;;5.18;2.90;;;-3.30;66.10;;;;;;5018812;28;20506;-80
2021/01/31 03:56:42;;;;;;;3.72;2.50;;;-3.30;66.10;;;;;;5027415;28;20038;-80
2021/01/31 03:59:10;;;;;;;3.50;2.45;;;-3.40;66.00;;;;;;5027474;28;20517;-80
2021/01/31 04:01:39;;;;;;;3.80;2.40;;;-3.30;65.90;;;;;;5027129;28;20041;-80
2021/01/31 04:04:10;;;;;;;3.85;2.58;;;-3.40;65.80;;;;;;5026325;28;20045;-79
2021/01/31 04:06:37;;;;;;;3.58;2.65;;;-3.40;65.70;;;;;;5027380;28;20523;-79
2021/01/31 04:09:05;;;;;;;3.10;2.25;;;-3.40;65.70;;;;;;5017710;28;20116;-80
2021/01/31 04:11:40;;;;;;;3.15;2.30;;;-3.40;65.70;;;;;;5026724;28;20034;-80
2021/01/31 04:14:22;;;;;;;5.03;3.28;;;-3.30;65.60;;;;;;5026192;28;20445;-80
2021/01/31 04:16:51;;;;;;;5.97;3.95;;;-3.40;65.60;;;;;;5026174;28;20660;-80
2021/01/31 04:19:18;;;;;;;4.25;2.95;;;-3.40;65.60;;;;;;5025542;28;20422;-80
2021/01/31 04:21:44;;;;;;;4.72;2.70;;;-3.40;65.70;;;;;;5027176;28;20060;-80
2021/01/31 04:24:10;;;;;;;5.05;3.15;;;-3.40;65.70;;;;;;5017214;28;20451;-80
2021/01/31 04:26:36;;;;;;;3.63;3.13;;;-3.50;65.60;;;;;;5026300;28;20033;-80
2021/01/31 04:29:03;;;;;;;3.83;2.47;;;-3.50;65.70;;;;;;5026921;28;20033;-80
2021/01/31 04:31:29;;;;;;;4.78;3.20;;;-3.50;65.70;;;;;;5025937;28;20118;-79
2021/01/31 04:33:55;;;;;;;5.40;2.80;;;-3.50;65.60;;;;;;5024903;28;20060;-80
2021/01/31 04:36:22;;;;;;;3.53;2.20;;;-3.50;65.60;;;;;;5025512;28;20368;-79
2021/01/31 04:38:48;;;;;;;3.60;2.55;;;-3.50;65.50;;;;;;5025727;28;20037;-80
2021/01/31 04:41:14;;;;;;;3.33;2.40;;;-3.50;65.50;;;;;;5008540;28;20074;-80
2021/01/31 04:43:40;;;;;;;3.45;2.08;;;-3.50;65.50;;;;;;5025057;28;20122;-79
2021/01/31 04:46:14;;;;;;;3.10;1.85;;;-3.50;65.60;;;;;;5026832;28;20034;-79
2021/01/31 04:49:01;;;;;;;3.15;2.05;;;-3.50;65.60;;;;;;5018231;28;20026;-80
2021/01/31 04:52:02;;;;;;;2.65;1.95;;;-3.50;65.60;;;;;;5057547;22;20127;-73
2021/01/31 04:54:27;;;;;;;3.00;2.20;;;-3.50;65.60;;;;;;5038373;28;20047;-73
2021/01/31 04:57:29;;;;;;;5.63;2.75;;;-3.50;65.70;;;;;;5048673;28;20120;-72
2021/01/31 04:59:55;;;;;;;3.63;2.53;;;-3.50;65.80;;;;;;5048293;28;20032;-77
2021/01/31 05:02:27;;;;;;;3.78;2.47;;;-3.50;65.90;;;;;;5048004;28;20048;-73
2021/01/31 05:05:00;;;;;;;2.65;1.98;;;-3.50;66.00;;;;;;5052505;28;20036;-73
2021/01/31 05:07:33;;;;;;;3.22;2.38;;;-3.50;66.00;;;;;;5050441;28;20129;-74
2021/01/31 05:09:58;;;;;;;2.75;1.75;;;-3.50;66.00;;;;;;5044048;28;20119;-74
2021/01/31 05:12:27;;;;;;;4.43;2.30;;;-3.40;65.90;;;;;;5052272;28;20116;-74
2021/01/31 05:15:02;;;;;;;2.80;1.90;;;-3.50;65.80;;;;;;5052475;28;20036;-74
2021/01/31 05:17:29;;;;;;;2.40;1.80;;;-3.50;65.70;;;;;;5046550;28;20042;-74
2021/01/31 05:19:56;;;;;;;1.73;1.23;;;-3.50;65.70;;;;;;5052479;28;20037;-73
2021/01/31 05:22:26;;;;;;;3.30;1.70;;;-3.40;65.80;;;;;;5052432;28;20498;-75
2021/01/31 05:24:54;;;;;;;1.70;1.27;;;-3.50;65.70;;;;;;5052073;28;20041;-73
2021/01/31 05:27:28;;;;;;;1.48;1.02;;;-3.40;65.80;;;;;;5050808;28;20037;-73
2021/01/31 05:29:53;;;;;;;1.83;1.55;;;-3.40;65.90;;;;;;5052042;28;20033;-74
2021/01/31 05:32:20;;;;;;;1.75;1.33;;;-3.40;65.90;;;;;;5048675;28;20034;-74
2021/01/31 05:34:55;;;;;;;1.80;1.40;;;-3.40;66.00;;;;;;5050764;28;20049;-74
2021/01/31 05:37:43;;;;;;;2.05;1.45;;;-3.40;66.00;;;;;;5052044;28;20547;-74
2021/01/31 05:40:25;;;;;;;3.00;1.60;;;-3.40;66.00;;;;;;5045936;28;20067;-74
2021/01/31 05:42:50;;;;;;;2.83;1.58;;;-3.30;66.00;;;;;;5051744;28;20060;-72
2021/01/31 05:45:19;;;;;;;3.10;1.67;;;-3.40;65.90;;;;;;5049267;28;21943;-75
2021/01/31 05:47:45;;;;;;;3.53;2.30;;;-3.30;65.80;;;;;;5050974;28;20127;-74
2021/01/31 05:50:30;;;;;;;3.47;2.42;;;-3.30;65.80;;;;;;5051912;28;20029;-72
2021/01/31 05:52:57;;;;;;;3.13;2.25;;;-3.30;65.90;;;;;;5043333;28;20584;-74
2021/01/31 05:55:29;;;;;;;4.10;2.47;;;-3.30;65.90;;;;;;5051836;28;20033;-73
2021/01/31 05:58:23;;;;;;;3.70;2.10;;;-3.30;66.00;;;;;;5051856;28;20151;-73
2021/01/31 06:01:06;;;;;;;3.22;2.03;;;-3.30;65.90;;;;;;5042875;28;20036;-75
2021/01/31 06:03:32;;;;;;;2.20;1.70;;;-3.30;65.90;;;;;;5050135;28;20033;-73
2021/01/31 06:06:09;;;;;;;3.17;2.15;;;-3.30;65.90;;;;;;5052085;28;20083;-74
2021/01/31 06:08:34;;;;;;;3.28;2.13;;;-3.30;66.00;;;;;;5048967;28;20080;-73
2021/01/31 06:11:06;;;;;;;2.97;1.67;;;-3.20;66.10;;;;;;5047017;28;20041;-73
2021/01/31 06:13:34;;;;;;;4.32;2.42;;;-3.20;66.10;;;;;;5048057;28;20049;-73
2021/01/31 06:16:03;;;;;;;4.57;2.88;;;-3.20;66.20;;;;;;5048615;28;20025;-74
2021/01/31 06:18:45;;;;;;;3.90;2.22;;;-3.20;66.30;;;;;;5048010;28;20116;-73
2021/01/31 06:21:14;;;;;;;2.95;1.75;;;-3.20;66.30;;;;;;5051193;28;20029;-75
2021/01/31 06:23:45;;;;;;;4.07;2.35;;;-3.10;66.40;;;;;;5049568;28;20041;-73
2021/01/31 06:26:23;;;;;;;3.95;1.92;;;-3.10;66.30;;;;;;5047966;28;20025;-74
2021/01/31 06:28:50;;;;;;;3.13;1.92;;;-3.10;66.30;;;;;;5050872;28;20039;-73
2021/01/31 06:31:20;;;;;;;4.07;2.35;;;-3.00;66.30;;;;;;5048354;28;20036;-73
2021/01/31 06:33:46;;;;;;;2.60;1.52;;;-3.00;66.40;;;;;;5050391;28;20043;-73
2021/01/31 06:36:34;;;;;;;3.63;2.20;;;-3.10;66.30;;;;;;5050950;28;20025;-73
2021/01/31 06:39:17;;;;;;;3.22;2.05;;;-3.00;66.40;;;;;;5043971;28;20025;-73
2021/01/31 06:42:17;;;;;;;3.25;2.10;;;-3.00;66.50;;;;;;5050477;28;20581;-73
2021/01/31 06:44:54;;;;;;;2.92;1.65;;;-2.90;66.50;;;;;;5047386;28;20056;-74
2021/01/31 06:47:32;;;;;;;3.38;2.15;;;-2.90;66.60;;;;;;5050218;28;20047;-72
2021/01/31 06:50:09;;;;;;;2.22;1.70;;;-2.90;66.60;;;;;;5043290;28;20086;-74
2021/01/31 06:53:06;;;;;;;3.78;2.00;;;-2.90;66.60;;;;;;5046917;28;20620;-73
2021/01/31 06:55:53;;;;;;;4.35;2.15;;;-2.80;66.60;;;;;;5049566;28;20025;-72
2021/01/31 06:58:48;;;;;;;2.97;1.90;;;-2.70;66.60;;;;;;5050475;28;20440;-73
2021/01/31 07:01:16;;;;;;;3.47;2.20;;;-2.70;66.60;;;;;;5050146;28;20579;-73
2021/01/31 07:04:04;;;;;;;2.88;1.90;;;-2.70;66.60;;;;;;5049891;28;20037;-72
2021/01/31 07:07:10;;;;;;;4.85;2.40;;;-2.60;66.60;;;;;;5048520;28;20457;-73
2021/01/31 07:10:04;;;;;;;3.65;2.13;;;-2.60;66.60;;;;;;5049659;28;20125;-73
2021/01/31 07:12:54;;;;;;;2.92;1.92;;;-2.60;66.60;;;;;;5049568;28;20494;-73
2021/01/31 07:15:20;;;;;;;2.53;1.45;;;-2.60;66.50;;;;;;5050548;28;20025;-72
2021/01/31 07:18:10;;;;;;;2.40;1.67;;;-2.60;66.50;;;;;;5048996;28;20513;-74
2021/01/31 07:20:43;;;;;;;3.05;1.85;;;-2.50;67.00;;;;;;5050121;28;20065;-73
2021/01/31 07:23:20;;;;;;;3.10;2.03;;;-2.50;66.50;;;;;;5048600;28;20033;-73
2021/01/31 07:25:52;;;;;;;2.78;1.35;;;-2.50;66.40;;;;;;5049876;28;20130;-74
2021/01/31 07:28:31;;;;;;;2.88;1.60;;;-2.50;66.30;;;;;;5049667;28;20029;-73
2021/01/31 07:31:00;;;;;;;2.95;2.00;;;-2.50;66.30;;;;;;5040986;28;20040;-73
2021/01/31 07:33:38;;;;;;;3.78;2.63;;;-2.50;66.30;;;;;;5047061;28;20033;-77
2021/01/31 07:36:11;;;;;;;3.47;1.85;;;-2.50;66.60;;;;;;5033271;28;20025;-72
2021/01/31 07:38:54;;;;;;;2.70;1.90;;;-2.50;66.90;;;;;;5049539;28;20520;-73
2021/01/31 07:41:19;;;;;;;2.47;1.83;;;-2.40;67.40;;;;;;5046907;28;20034;-75
2021/01/31 07:43:47;;;;;;;2.80;1.95;;;-2.40;67.30;;;;;;5050035;28;20031;-74
2021/01/31 07:46:16;;;;;;;3.25;1.85;;;-2.30;67.20;;;;;;5049931;28;20497;-72
2021/01/31 07:48:50;;;;;;;3.63;2.15;;;-2.30;67.10;;;;;;5047846;28;20052;-73
2021/01/31 07:51:40;;;;;;;4.35;2.20;;;-2.30;66.90;;;;;;5045293;28;20040;-72
2021/01/31 07:54:24;;;;;;;3.08;1.85;;;-2.20;66.80;;;;;;5041175;28;20037;-73
2021/01/31 07:56:52;;;;;;;3.20;2.05;;;-2.20;66.70;;;;;;5049613;28;20029;-70
2021/01/31 07:59:20;;;;;;;2.42;1.35;;;-2.20;67.00;;;;;;5058011;28;20033;-73
2021/01/31 08:01:52;;;;;;;3.55;1.77;;;-2.20;66.40;;;;;;5049799;28;20517;-73
2021/01/31 08:04:17;;;;;;;3.90;1.85;;;-2.20;66.30;;;;;;5057872;28;20529;-73
2021/01/31 08:06:47;;;;;;;3.00;1.90;;;-2.20;66.30;;;;;;5039972;28;20121;-73
2021/01/31 08:09:28;;;;;;;1.98;1.48;;;-2.20;66.30;;;;;;5041223;28;20055;-73
2021/01/31 08:11:58;;;;;;;;;;;-2.20;66.30;;;;;;5041983;28;20068;-74
2021/01/31 08:15:01;;;;;;;1.98;1.48;;;-2.20;66.30;;;;;;5048428;28;19991;-74
2021/01/31 08:17:55;;;;;;;2.47;1.52;;;-2.20;66.10;;;;;;5039990;28;20112;-73
2021/01/31 08:20:29;;;;;;;2.45;1.52;;;-2.30;66.00;;;;;;5042800;28;20048;-72
2021/01/31 08:22:55;;;;;;;2.65;1.60;;;-2.30;66.00;;;;;;5023160;28;20026;-72
2021/01/31 08:25:25;;;;;;;2.72;1.75;;;-2.30;66.10;;;;;;5041743;28;20037;-72
2021/01/31 08:28:15;;;;;;;2.65;1.88;;;-2.40;66.20;;;;;;5042451;28;20029;-73
2021/01/31 08:31:04;;;;;;;2.53;1.52;;;-2.40;66.20;;;;;;5040678;28;20086;-73
2021/01/31 08:33:32;;;;;;;3.17;2.03;;;-2.30;66.40;;;;;;5042622;28;20033;-72
2021/01/31 08:36:21;;;;;;;3.40;2.42;;;-2.40;66.40;;;;;;5025735;28;20075;-71
2021/01/31 08:38:54;;;;;;;2.60;1.73;;;-2.30;66.60;;;;;;5030462;28;20056;-72
2021/01/31 08:41:30;;;;;;;3.63;2.03;;;-2.30;66.70;;;;;;5040652;28;20786;-72
2021/01/31 08:43:58;;;;;;;3.05;1.92;;;-2.30;66.80;;;;;;5039288;28;20414;-73
2021/01/31 08:46:29;;;;;;;3.60;2.28;;;-2.20;66.90;;;;;;5040301;28;20094;-73
2021/01/31 08:49:02;;;;;;;3.08;1.80;;;-2.20;67.00;;;;;;5041778;28;20029;-72
2021/01/31 08:51:36;;;;;;;3.55;2.03;;;-2.20;67.10;;;;;;5039306;28;20056;-74
2021/01/31 08:54:06;;;;;;;3.83;2.30;;;-2.10;67.30;;;;;;5039468;28;20033;-72
2021/01/31 08:56:41;;;;;;;3.30;2.20;;;-2.00;67.40;;;;;;5040635;28;20030;-72
2021/01/31 08:59:13;;;;;;;3.15;2.13;;;-2.00;67.40;;;;;;5049310;28;20029;-74
2021/01/31 09:01:45;;;;;;;3.58;2.60;;;-1.90;67.60;;;;;;5046705;28;20056;-72
2021/01/31 09:04:13;;;;;;;4.35;2.47;;;-1.80;67.80;;;;;;5044831;28;20044;-73
2021/01/31 09:06:40;;;;;;;5.10;2.65;;;-2.00;67.70;;;;;;5046908;28;20112;-72
2021/01/31 09:09:12;;;;;;;4.18;3.03;;;-1.70;68.00;;;;;;5041522;28;20093;-74
2021/01/31 09:11:38;;;;;;;5.72;3.22;;;-1.60;68.10;;;;;;5045131;28;20032;-73
2021/01/31 09:14:15;;;;;;;5.82;3.40;;;-1.60;68.00;;;;;;5047917;28;20494;-73
2021/01/31 09:16:41;;;;;;;6.00;3.67;;;-1.50;68.10;;;;;;5047619;28;20037;-73
2021/01/31 09:19:15;;;;;;;5.22;3.03;;;-1.40;68.20;;;;;;5044909;28;20130;-73
2021/01/31 09:21:41;;;;;;;3.92;2.70;;;-1.30;68.20;;;;;;5056492;28;20496;-73
2021/01/31 09:24:11;;;;;;;4.32;3.00;;;-1.20;68.30;;;;;;5052585;28;20033;-73
2021/01/31 09:26:37;;;;;;;4.25;2.65;;;-1.10;68.40;;;;;;5049185;28;20029;-73
2021/01/31 09:29:09;;;;;;;4.95;2.95;;;-1.10;68.50;;;;;;5042815;28;20703;-72
2021/01/31 09:31:37;;;;;;;4.97;3.10;;;-0.90;68.80;;;;;;5045923;28;20737;-71
2021/01/31 09:34:04;;;;;;;5.43;3.05;;;-0.90;68.90;;;;;;5048333;28;20055;-72
2021/01/31 09:36:30;;;;;;;5.68;3.50;;;-0.80;69.00;;;;;;5024411;28;20022;-72
2021/01/31 09:38:58;;;;;;;5.35;3.22;;;-0.50;69.20;;;;;;5047858;28;20491;-72
2021/01/31 09:41:26;;;;;;;4.43;3.25;;;-0.50;69.20;;;;;;5048792;28;20029;-72
2021/01/31 09:43:56;;;;;;;6.30;3.63;;;-0.40;69.30;;;;;;5047828;28;20032;-73
2021/01/31 09:46:26;;;;;;;5.78;3.65;;;-0.30;69.40;;;;;;5042057;28;20037;-72
2021/01/31 09:49:19;;;;;;;4.95;3.30;;;-0.20;69.40;;;;;;5046691;28;20017;-72
2021/01/31 09:51:45;;;;;;;5.70;3.50;;;-0.10;69.50;;;;;;5047594;28;20041;-73
2021/01/31 09:54:14;;;;;;;6.03;3.90;;;0.10;69.40;;;;;;5044388;28;20490;-72
2021/01/31 09:56:43;;;;;;;5.82;3.47;;;0.20;69.50;;;;;;5048619;28;20029;-71
2021/01/31 09:59:28;;;;;;;6.13;3.75;;;0.20;69.50;;;;;;5041244;28;20032;-72
2021/01/31 10:02:03;;;;;;;7.07;4.20;;;0.40;69.60;;;;;;5038447;28;20036;-71
2021/01/31 10:04:30;;;;;;;5.25;3.50;;;0.50;69.60;;;;;;5041953;28;20056;-73
2021/01/31 10:07:14;;;;;;;6.25;3.92;;;0.60;69.60;;;;;;5038296;28;20041;-71
2021/01/31 10:09:50;;;;;;;6.65;4.05;;;0.70;69.80;;;;;;5040506;28;20025;-71
2021/01/31 10:12:29;;;;;;;5.75;3.65;;;0.80;69.90;;;;;;5039277;28;20116;-70
2021/01/31 10:15:00;;;;;;;6.05;3.90;;;1.00;70.00;;;;;;5037751;28;20052;-72
2021/01/31 10:17:28;;;;;;;5.90;3.90;;;1.10;70.00;;;;;;5040080;28;20179;-72
2021/01/31 10:20:28;;;;;;;6.57;4.72;;;1.20;69.90;;;;;;5042335;28;20108;-74
2021/01/31 10:23:06;;;;;;;5.82;3.72;;;1.30;69.90;;;;;;5038537;28;20033;-72
2021/01/31 10:25:33;;;;;;;5.97;3.95;;;1.40;69.80;;;;;;5042181;28;20042;-73
2021/01/31 10:27:59;;;;;;;5.72;3.97;;;1.50;69.80;;;;;;5036388;28;20053;-72
2021/01/31 10:30:37;;;;;;;4.10;3.45;;;1.60;69.90;;;;;;5047111;28;20056;-73
2021/01/31 10:33:04;;;;;;;4.45;3.55;;;1.70;70.00;;;;;;5048532;28;20041;-72
2021/01/31 10:35:33;;;;;;;5.30;3.90;;;1.80;70.00;;;;;;5042044;28;20041;-73
2021/01/31 10:38:20;;;;;;;6.65;4.57;;;1.90;70.20;;;;;;5028066;28;20029;-72
2021/01/31 10:40:45;;;;;;;7.18;4.70;;;2.00;70.30;;;;;;5051174;28;20147;-73
2021/01/31 10:43:11;;;;;;;6.18;4.68;;;2.10;70.30;;;;;;5046261;28;20028;-74
2021/01/31 10:45:38;;;;;;;6.53;4.80;;;2.30;70.60;;;;;;5041804;28;20555;-72
2021/01/31 10:48:03;;;;;;;6.38;4.32;;;2.30;70.40;;;;;;5047754;28;20033;-72
2021/01/31 10:50:29;;;;;;;6.55;4.32;;;2.50;70.40;;;;;;5044870;28;20042;-72
2021/01/31 10:52:55;;;;;;;6.43;5.03;;;2.60;70.40;;;;;;5044891;28;20056;-72
2021/01/31 10:55:20;;;;;;;6.93;4.97;;;2.70;70.40;;;;;;5073068;23;20094;-82
2021/01/31 10:57:46;;;;;;;6.32;5.07;;;2.80;70.40;;;;;;5069888;28;20036;-82
2021/01/31 11:00:12;;;;;;;6.93;5.30;;;3.00;70.30;;;;;;5069847;28;20047;-81
2021/01/31 11:02:38;;;;;;;7.93;5.13;;;3.00;70.20;;;;;;5070761;28;20036;-82
2021/01/31 11:05:07;;;;;;;7.22;5.38;;;3.10;70.10;;;;;;5068400;28;20363;-82
2021/01/31 11:07:32;;;;;;;6.93;5.15;;;3.30;70.10;;;;;;5069282;28;20389;-81
2021/01/31 11:09:59;;;;;;;6.22;4.70;;;3.40;70.30;;;;;;5070602;28;20050;-81
2021/01/31 11:12:24;;;;;;;6.38;4.72;;;3.40;70.40;;;;;;5061118;28;20113;-81
2021/01/31 11:14:50;;;;;;;7.65;5.53;;;3.50;70.30;;;;;;5069950;28;20067;-80
2021/01/31 11:17:15;;;;;;;7.63;5.82;;;3.60;70.10;;;;;;5067049;28;20041;-81
2021/01/31 11:19:41;;;;;;;8.70;5.75;;;3.70;69.90;;;;;;5070949;28;20032;-80
2021/01/31 11:22:06;;;;;;;6.60;4.85;;;3.80;69.80;;;;;;5071196;28;20028;-81
2021/01/31 11:24:32;;;;;;;6.60;4.97;;;3.80;69.60;;;;;;5070083;28;20119;-82
2021/01/31 11:26:57;;;;;;;7.65;4.70;;;3.90;69.50;;;;;;5070709;28;20040;-81
2021/01/31 11:29:23;;;;;;;5.55;4.70;;;3.90;69.30;;;;;;5061701;28;20037;-81
2021/01/31 11:31:48;;;;;;;5.63;4.53;;;4.00;69.30;;;;;;5067335;28;20036;-81
2021/01/31 11:34:14;;;;;;;5.65;4.15;;;4.00;69.20;;;;;;5066881;28;20025;-81
2021/01/31 11:36:39;;;;;;;4.95;3.83;;;4.10;69.20;;;;;;5067347;28;20553;-81
2021/01/31 11:39:07;;;;;;;5.57;4.22;;;4.10;69.20;;;;;;5054866;28;20059;-81
2021/01/31 11:41:35;;;;;;;5.72;4.43;;;4.20;69.20;;;;;;5066775;28;20119;-81
2021/01/31 11:44:00;;;;;;;5.60;4.88;;;4.20;69.20;;;;;;5067419;28;20119;-81
2021/01/31 11:46:26;;;;;;;5.88;4.47;;;4.20;69.20;;;;;;5066609;28;20116;-81
2021/01/31 11:48:51;;;;;;;4.97;3.80;;;4.30;69.20;;;;;;5063325;28;20393;-81
2021/01/31 11:51:17;;;;;;;6.38;5.18;;;4.30;69.20;;;;;;5063723;28;20032;-81
2021/01/31 11:53:44;;;;;;;4.40;3.85;;;4.40;69.40;;;;;;5061438;28;20551;-81
2021/01/31 11:56:09;;;;;;;4.90;4.35;;;4.40;69.50;;;;;;5064200;28;20055;-81
2021/01/31 11:58:35;;;;;;;5.30;4.15;;;4.50;69.50;;;;;;5064318;28;20481;-81
2021/01/31 12:01:00;;;;;;;8.48;4.32;;;4.50;69.30;;;;;;5065466;28;20016;-81
2021/01/31 12:03:26;;;;;;;6.57;5.15;;;4.60;69.30;;;;;;5061835;28;21582;-82
2021/01/31 12:05:51;;;;;;;6.57;5.03;;;4.60;69.10;;;;;;5064658;28;20543;-81
2021/01/31 12:08:17;;;;;;;5.20;3.88;;;4.70;69.10;;;;;;5043014;28;20081;-82
2021/01/31 12:10:43;;;;;;;4.80;3.95;;;4.70;69.00;;;;;;5062554;28;20505;-81
2021/01/31 12:13:08;;;;;;;4.30;3.90;;;4.70;68.90;;;;;;5064007;28;20043;-82
2021/01/31 12:15:34;;;;;;;5.00;4.15;;;4.80;69.00;;;;;;5055955;28;20029;-81
2021/01/31 12:17:59;;;;;;;4.75;3.67;;;4.80;68.90;;;;;;5059093;28;20033;-81
2021/01/31 12:20:25;;;;;;;4.50;4.00;;;4.80;68.80;;;;;;5063447;28;20032;-81
2021/01/31 12:22:50;;;;;;;4.15;3.53;;;4.90;69.00;;;;;;5066511;28;20071;-82
2021/01/31 12:25:18;;;;;;;4.55;3.70;;;4.90;68.80;;;;;;5066880;28;20028;-82
2021/01/31 12:27:45;;;;;;;5.38;4.03;;;4.90;69.30;;;;;;5067246;28;20035;-82
2021/01/31 12:30:12;;;;;;;4.72;3.80;;;5.00;68.80;;;;;;5070640;28;20119;-82
2021/01/31 12:32:37;;;;;;;5.90;4.60;;;5.00;68.70;;;;;;5074224;28;20043;-81
2021/01/31 12:35:03;;;;;;;7.10;4.80;;;5.10;68.70;;;;;;5069405;28;20024;-78
2021/01/31 12:37:29;;;;;;;5.88;4.38;;;5.10;68.60;;;;;;5065822;28;20117;-79
2021/01/31 12:39:56;;;;;;;6.15;5.22;;;5.10;68.70;;;;;;5062394;28;20033;-78
2021/01/31 12:42:23;;;;;;;6.00;4.60;;;5.10;68.60;;;;;;5066359;28;20025;-77
2021/01/31 12:44:49;;;;;;;6.60;5.05;;;5.20;68.50;;;;;;5067828;28;20448;-78
2021/01/31 12:47:14;;;;;;;9.55;4.95;;;5.20;68.40;;;;;;5065894;28;20040;-81
2021/01/31 12:49:40;;;;;;;6.85;4.53;;;5.20;68.50;;;;;;5063529;28;20067;-82
2021/01/31 12:52:06;;;;;;;8.05;5.55;;;5.20;68.40;;;;;;5063815;28;20033;-81
2021/01/31 12:54:32;;;;;;;6.10;4.95;;;5.30;68.60;;;;;;5054828;28;20040;-80
2021/01/31 12:56:57;;;;;;;5.68;4.70;;;5.20;68.30;;;;;;5064725;28;20508;-81
2021/01/31 12:59:23;;;;;;;7.63;5.50;;;5.30;68.20;;;;;;5062591;28;20040;-80
2021/01/31 13:01:48;;;;;;;5.90;5.15;;;5.30;68.00;;;;;;5060187;28;20074;-82
2021/01/31 13:04:14;;;;;;;5.57;4.38;;;5.30;67.80;;;;;;5066836;28;20491;-81
2021/01/31 13:06:39;;;;;;;4.65;3.95;;;5.30;67.60;;;;;;5065696;28;20050;-81
2021/01/31 13:09:05;;;;;;;5.75;4.40;;;5.30;67.60;;;;;;5056598;28;20492;-81
2021/01/31 13:11:31;;;;;;;4.63;3.78;;;5.30;67.60;;;;;;5057488;28;20037;-81
2021/01/31 13:13:56;;;;;;;4.55;3.65;;;5.30;67.60;;;;;;5056634;28;20032;-80